Terminal Aerodrome Forecast
Issued by NWS

Home | Current Version | Previous Version | Text Only | Print | Product List | Glossary On
Versions: 1 2 3 4 5 6 7 8 9 10 11 12 13 14
000
FTUS44 KEPZ 301738
TAFLRU
TAF
KLRU 301738Z 3018/3118 21010KT P6SM VCTS SCT070CB BKN100
      TEMPO 3020/3024 VRB25G35KT 6SM -TSRA BKN060CB BKN100
     FM310200 26010KT P6SM SCT080 SCT120
     FM310600 25007KT P6SM FEW100=

USA.gov is the U.S. government's official web portal to all federal, state and local government web resources and services.